createdAt,value
2023-05-19T00:01:01.677Z,78.36
2023-05-19T00:03:31.277Z,78.63
2023-05-19T00:06:01.055Z,78.36
2023-05-19T00:08:32.264Z,78.63
2023-05-19T00:11:00.843Z,78.58
2023-05-19T00:13:31.051Z,78.54
2023-05-19T00:15:59.473Z,78.41
2023-05-19T00:18:29.894Z,78.59
2023-05-19T00:20:57.861Z,78.46
2023-05-19T00:23:25.960Z,78.75
2023-05-19T00:25:54.047Z,78.76
2023-05-19T00:28:22.072Z,78.16
2023-05-19T00:30:51.873Z,79.04
2023-05-19T00:33:19.798Z,78.36
2023-05-19T00:35:47.749Z,78.94
2023-05-19T00:38:15.657Z,79.06
2023-05-19T00:40:43.597Z,79.34
2023-05-19T00:43:11.474Z,79.88
2023-05-19T00:45:39.504Z,79.92
2023-05-19T00:48:08.824Z,79.89
2023-05-19T00:50:36.834Z,79.57
2023-05-19T00:53:05.093Z,78.77
2023-05-19T00:55:35.558Z,79.39
2023-05-19T00:58:05.498Z,79.42
2023-05-19T01:00:33.875Z,79.38
2023-05-19T01:03:03.078Z,79.62
2023-05-19T01:05:32.539Z,79.55
2023-05-19T01:08:00.684Z,79.71
2023-05-19T01:10:28.598Z,78.85
2023-05-19T01:12:56.577Z,79.34
2023-05-19T01:15:28.038Z,79.60
2023-05-19T01:18:07.345Z,79.35
2023-05-19T01:20:42.773Z,79.28
2023-05-19T01:23:29.306Z,79.69
2023-05-19T01:26:12.823Z,79.07
2023-05-19T01:29:09.642Z,79.45
2023-05-19T01:31:43.156Z,79.26
2023-05-19T01:34:14.142Z,79.21
2023-05-19T01:36:44.842Z,79.11
2023-05-19T01:39:15.223Z,79.02
2023-05-19T01:41:46.703Z,78.89
2023-05-19T01:44:16.016Z,78.93
2023-05-19T01:46:47.156Z,78.64
2023-05-19T01:49:15.386Z,78.27
2023-05-19T01:51:45.404Z,79.05
2023-05-19T01:54:13.350Z,78.77
2023-05-19T01:56:47.649Z,78.19
2023-05-19T01:59:29.746Z,78.27
2023-05-19T02:02:04.793Z,78.25
2023-05-19T02:04:40.786Z,78.49
2023-05-19T02:07:16.380Z,77.93
2023-05-19T02:09:52.624Z,78.02
2023-05-19T02:12:26.872Z,78.91
2023-05-19T02:15:04.266Z,78.98
2023-05-19T02:17:37.197Z,78.66
2023-05-19T02:20:06.002Z,79.33
2023-05-19T02:22:34.162Z,78.75
2023-05-19T02:25:02.225Z,77.95
2023-05-19T02:27:30.254Z,78.42
2023-05-19T02:29:58.548Z,78.54
2023-05-19T02:32:26.485Z,78.89
2023-05-19T02:34:56.609Z,77.99
2023-05-19T02:37:25.270Z,78.89
2023-05-19T02:39:53.161Z,78.60
2023-05-19T02:42:21.339Z,78.10
2023-05-19T02:44:49.551Z,78.23
2023-05-19T02:47:17.543Z,78.82
2023-05-19T02:49:45.893Z,78.52
2023-05-19T02:52:15.123Z,78.16
2023-05-19T02:54:43.058Z,78.61
2023-05-19T02:57:11.223Z,78.43
2023-05-19T02:59:39.236Z,78.36
2023-05-19T03:02:07.203Z,78.30
2023-05-19T03:04:42.114Z,78.25
2023-05-19T03:07:11.172Z,78.31
2023-05-19T03:09:40.724Z,78.46
2023-05-19T03:12:09.054Z,77.69
2023-05-19T03:14:38.753Z,78.24
2023-05-19T03:17:08.390Z,77.45
2023-05-19T03:19:36.503Z,77.45
2023-05-19T03:22:04.962Z,77.63
2023-05-19T03:24:34.514Z,77.10
2023-05-19T03:27:06.303Z,77.31
2023-05-19T03:29:34.606Z,77.00
2023-05-19T03:32:03.626Z,77.66
2023-05-19T03:34:32.679Z,77.45
2023-05-19T03:37:00.664Z,77.85
2023-05-19T03:39:39.557Z,77.67
2023-05-19T03:42:09.085Z,78.37
2023-05-19T03:44:37.013Z,77.58
2023-05-19T03:47:05.162Z,78.54
2023-05-19T03:50:14.854Z,78.00
2023-05-19T03:52:51.988Z,77.87
2023-05-19T03:55:30.556Z,77.98
2023-05-19T03:57:59.893Z,78.14
2023-05-19T04:00:27.790Z,78.34
2023-05-19T04:02:55.999Z,79.30
2023-05-19T04:05:24.138Z,79.93
2023-05-19T04:07:52.042Z,79.75
2023-05-19T04:10:20.685Z,80.21
2023-05-19T04:12:48.794Z,80.12
2023-05-19T04:15:18.738Z,80.01
2023-05-19T04:17:47.013Z,79.54
2023-05-19T04:20:14.903Z,79.64
2023-05-19T04:22:42.806Z,79.97
2023-05-19T04:25:11.075Z,79.94
2023-05-19T04:27:39.707Z,79.34
2023-05-19T04:30:09.141Z,79.55
2023-05-19T04:32:39.555Z,78.86
2023-05-19T04:35:08.163Z,79.64
2023-05-19T04:37:37.597Z,79.48
2023-05-19T04:40:11.110Z,78.88
2023-05-19T04:42:42.640Z,78.62
2023-05-19T04:45:12.679Z,78.67
2023-05-19T04:47:46.879Z,79.15
2023-05-19T04:50:16.456Z,78.80
2023-05-19T04:56:52.099Z,79.47
2023-05-19T04:59:21.088Z,79.84
2023-05-19T05:01:49.258Z,79.10
2023-05-19T05:04:21.586Z,79.00
2023-05-19T05:06:49.807Z,78.38
2023-05-19T05:09:19.991Z,78.44
2023-05-19T05:11:48.615Z,78.04
2023-05-19T05:14:17.025Z,77.52
2023-05-19T05:16:45.746Z,77.95
2023-05-19T05:19:17.914Z,78.28
2023-05-19T05:21:48.034Z,78.03
2023-05-19T05:24:18.039Z,77.88
2023-05-19T05:26:52.440Z,78.26
2023-05-19T05:29:21.063Z,78.73
2023-05-19T05:31:49.189Z,78.49
2023-05-19T05:34:18.029Z,78.39
2023-05-19T05:36:47.447Z,78.40
2023-05-19T05:39:16.059Z,78.36
2023-05-19T05:41:45.761Z,78.50
2023-05-19T05:44:14.137Z,78.81
2023-05-19T05:46:45.174Z,78.83
2023-05-19T05:49:13.687Z,78.25
2023-05-19T05:51:51.372Z,78.13
2023-05-19T05:54:36.430Z,78.12
2023-05-19T05:57:05.731Z,77.87
2023-05-19T05:59:34.834Z,77.84
2023-05-19T06:02:03.035Z,77.71
2023-05-19T06:04:31.195Z,76.72
2023-05-19T06:07:01.643Z,77.18
2023-05-19T06:09:34.911Z,77.57
2023-05-19T06:12:04.191Z,77.75
2023-05-19T06:14:37.167Z,78.03
2023-05-19T06:17:19.618Z,77.52
2023-05-19T06:19:47.532Z,77.47
2023-05-19T06:22:16.327Z,76.89
2023-05-19T06:24:46.539Z,76.94
2023-05-19T06:27:15.199Z,77.84
2023-05-19T06:29:43.182Z,78.17
2023-05-19T06:32:11.340Z,78.18
2023-05-19T06:34:41.552Z,77.95
2023-05-19T06:37:10.236Z,77.60
2023-05-19T06:39:39.242Z,77.42
2023-05-19T06:42:08.737Z,77.20
2023-05-19T06:44:56.856Z,77.07
2023-05-19T06:47:25.288Z,76.47
2023-05-19T06:49:55.352Z,75.80
2023-05-19T06:52:26.854Z,74.96
2023-05-19T06:54:55.573Z,74.68
2023-05-19T06:57:24.944Z,73.78
2023-05-19T06:59:52.937Z,73.06
2023-05-19T07:02:20.849Z,72.36
2023-05-19T07:04:49.208Z,72.21
2023-05-19T07:07:18.169Z,72.06
2023-05-19T07:09:46.256Z,71.67
2023-05-19T07:12:14.623Z,70.94
2023-05-19T07:14:44.036Z,70.79
2023-05-19T07:17:13.148Z,71.03
2023-05-19T07:19:45.023Z,71.09
2023-05-19T07:22:13.030Z,70.67
2023-05-19T07:24:41.031Z,70.58
2023-05-19T07:27:09.132Z,70.02
2023-05-19T07:29:38.014Z,70.02
2023-05-19T07:32:08.150Z,68.61
2023-05-19T07:34:36.770Z,69.19
2023-05-19T07:37:04.886Z,68.57
2023-05-19T07:39:32.859Z,68.62
2023-05-19T07:42:00.888Z,68.45
2023-05-19T07:44:31.306Z,67.76
2023-05-19T07:46:59.297Z,66.98
2023-05-19T07:49:29.563Z,67.01
2023-05-19T07:51:58.333Z,66.61
2023-05-19T07:54:26.477Z,65.95
2023-05-19T07:56:54.444Z,65.56
2023-05-19T07:59:22.398Z,65.33
2023-05-19T08:01:50.653Z,65.61
2023-05-19T08:04:18.801Z,65.57
2023-05-19T08:06:48.149Z,66.11
2023-05-19T08:09:16.077Z,66.15
2023-05-19T08:11:44.811Z,66.09
2023-05-19T08:14:12.778Z,66.72
2023-05-19T08:16:42.257Z,66.62
2023-05-19T08:19:10.434Z,66.53
2023-05-19T08:21:38.375Z,67.18
2023-05-19T08:24:07.945Z,67.29
2023-05-19T08:26:37.745Z,67.69
2023-05-19T08:29:06.177Z,67.41
2023-05-19T08:31:34.728Z,67.26
2023-05-19T08:34:03.543Z,67.08
2023-05-19T08:36:31.537Z,67.11
2023-05-19T08:38:59.479Z,67.10
2023-05-19T08:41:28.761Z,67.49
2023-05-19T08:43:56.769Z,67.35
2023-05-19T08:46:26.516Z,67.86
2023-05-19T08:48:59.838Z,68.63
2023-05-19T08:51:34.634Z,68.74
2023-05-19T08:54:13.922Z,68.25
2023-05-19T08:56:44.440Z,68.00
2023-05-19T08:59:14.166Z,67.83
2023-05-19T09:01:45.789Z,67.67
2023-05-19T09:04:14.472Z,67.45
2023-05-19T09:06:45.111Z,67.11
2023-05-19T09:09:13.195Z,66.63
2023-05-19T09:11:41.086Z,66.56
2023-05-19T09:14:10.646Z,66.32
2023-05-19T09:16:39.202Z,65.95
2023-05-19T09:19:08.646Z,65.68
2023-05-19T09:21:37.297Z,65.49
2023-05-19T09:24:06.188Z,65.29
2023-05-19T09:26:38.592Z,64.89
2023-05-19T09:29:14.834Z,64.81
2023-05-19T09:31:50.302Z,63.96
2023-05-19T09:34:18.332Z,63.48
2023-05-19T09:36:49.410Z,63.44
2023-05-19T09:39:18.186Z,63.21
2023-05-19T09:41:46.500Z,62.99
2023-05-19T09:44:23.335Z,62.81
2023-05-19T09:46:52.783Z,62.58
2023-05-19T09:49:22.593Z,62.53
2023-05-19T09:51:52.382Z,62.25
2023-05-19T09:54:21.457Z,62.20
2023-05-19T09:56:53.103Z,62.17
2023-05-19T09:59:25.615Z,62.25
2023-05-19T10:01:56.499Z,62.40
2023-05-19T10:04:26.826Z,62.72
2023-05-19T10:06:55.754Z,62.60
2023-05-19T10:09:25.825Z,62.64
2023-05-19T10:11:54.598Z,63.03
2023-05-19T10:14:26.134Z,63.17
2023-05-19T10:16:55.186Z,63.14
2023-05-19T10:19:24.860Z,63.03
2023-05-19T10:21:53.486Z,62.65
2023-05-19T10:24:21.863Z,62.29
2023-05-19T10:26:54.506Z,62.13
2023-05-19T10:29:29.270Z,61.54
2023-05-19T10:32:00.618Z,60.93
2023-05-19T10:34:50.285Z,60.76
2023-05-19T10:37:28.968Z,60.23
2023-05-19T10:39:58.804Z,60.17
2023-05-19T10:42:37.277Z,59.73
2023-05-19T10:45:15.300Z,59.61
2023-05-19T10:47:43.510Z,59.42
2023-05-19T10:50:12.177Z,59.02
2023-05-19T10:52:41.140Z,59.02
2023-05-19T10:55:10.283Z,58.79
2023-05-19T10:57:38.288Z,58.39
2023-05-19T11:00:29.184Z,57.80
2023-05-19T11:03:13.935Z,57.79
2023-05-19T11:05:45.205Z,57.61
2023-05-19T11:08:14.185Z,57.03
2023-05-19T11:10:45.936Z,57.03
2023-05-19T11:13:22.668Z,56.60
2023-05-19T11:15:53.163Z,56.60
2023-05-19T11:18:21.740Z,56.58
2023-05-19T11:20:59.012Z,56.55
2023-05-19T11:23:27.171Z,56.31
2023-05-19T11:25:55.121Z,56.47
2023-05-19T11:28:26.092Z,56.44
2023-05-19T11:30:59.072Z,56.28
2023-05-19T11:33:28.028Z,56.24
2023-05-19T11:35:58.920Z,56.18
2023-05-19T11:38:30.162Z,56.09
2023-05-19T11:40:58.304Z,55.97
2023-05-19T11:43:26.767Z,56.27
2023-05-19T11:45:56.881Z,56.51
2023-05-19T11:48:25.972Z,56.27
2023-05-19T11:50:54.208Z,56.61
2023-05-19T11:53:22.339Z,56.88
2023-05-19T11:55:50.448Z,56.66
2023-05-19T11:58:18.705Z,56.18
2023-05-19T12:00:48.061Z,56.30
2023-05-19T12:03:22.255Z,56.14
2023-05-19T12:05:50.710Z,56.32
2023-05-19T12:08:19.469Z,56.36
2023-05-19T12:10:50.397Z,56.14
2023-05-19T12:13:18.385Z,56.35
2023-05-19T12:15:46.410Z,56.10
2023-05-19T12:18:14.878Z,55.56
2023-05-19T12:20:44.300Z,54.99
2023-05-19T12:23:12.819Z,54.59
2023-05-19T12:25:40.961Z,54.94
2023-05-19T12:28:08.917Z,54.94
2023-05-19T12:30:37.156Z,54.84
2023-05-19T12:33:05.817Z,55.06
2023-05-19T12:35:34.412Z,55.45
2023-05-19T12:38:08.268Z,55.91
2023-05-19T12:40:37.890Z,56.12
2023-05-19T12:43:06.793Z,56.42
2023-05-19T12:45:36.178Z,56.62
2023-05-19T12:48:06.516Z,56.53
2023-05-19T12:50:35.306Z,56.70
2023-05-19T12:53:03.482Z,56.55
2023-05-19T12:55:39.367Z,57.09
2023-05-19T12:58:08.683Z,56.71
2023-05-19T13:00:42.165Z,56.56
2023-05-19T13:03:16.762Z,56.56
2023-05-19T13:05:46.749Z,56.88
2023-05-19T13:08:16.498Z,57.11
2023-05-19T13:10:46.959Z,56.78
2023-05-19T13:13:15.104Z,56.58
2023-05-19T13:15:44.950Z,56.52
2023-05-19T13:18:14.361Z,56.80
2023-05-19T13:20:44.443Z,56.11
2023-05-19T13:23:13.403Z,55.95
2023-05-19T13:25:42.097Z,55.95
2023-05-19T13:28:12.028Z,55.72
2023-05-19T13:30:41.272Z,55.73
2023-05-19T13:33:09.504Z,55.80
2023-05-19T13:35:38.241Z,54.74
2023-05-19T13:38:06.760Z,54.09
2023-05-19T13:40:35.845Z,53.79
2023-05-19T13:43:04.153Z,53.42
2023-05-19T13:45:33.490Z,53.20
2023-05-19T13:48:01.527Z,53.10
2023-05-19T13:50:29.640Z,52.79
2023-05-19T13:52:57.637Z,52.57
2023-05-19T13:55:27.265Z,52.67
2023-05-19T13:57:55.301Z,51.84
2023-05-19T14:00:23.952Z,51.35
2023-05-19T14:02:53.772Z,51.25
2023-05-19T14:05:21.737Z,51.20
2023-05-19T14:07:49.658Z,50.75
2023-05-19T14:10:17.711Z,50.08
2023-05-19T14:13:14.080Z,49.75
2023-05-19T14:15:37.661Z,49.91
2023-05-19T14:18:07.475Z,49.05
2023-05-19T14:20:35.779Z,47.94
2023-05-19T14:23:04.058Z,47.92
2023-05-19T14:25:32.008Z,47.84
2023-05-19T14:27:59.964Z,47.81
2023-05-19T14:30:27.975Z,47.37
2023-05-19T14:32:57.163Z,47.52
2023-05-19T14:35:26.729Z,47.37
2023-05-19T14:37:54.656Z,47.24
2023-05-19T14:40:22.555Z,47.08
2023-05-19T14:42:50.446Z,46.92
2023-05-19T14:45:18.564Z,46.64
2023-05-19T14:47:47.732Z,47.23
2023-05-19T14:50:16.062Z,47.38
2023-05-19T14:52:45.364Z,46.87
2023-05-19T14:55:13.300Z,46.04
2023-05-19T14:57:41.186Z,45.80
2023-05-19T15:00:10.361Z,45.87
2023-05-19T15:02:38.421Z,45.54
2023-05-19T15:05:06.870Z,45.49
2023-05-19T15:07:34.834Z,44.67
2023-05-19T15:10:04.239Z,44.62
2023-05-19T15:12:32.142Z,44.73
2023-05-19T15:15:00.214Z,45.04
2023-05-19T15:17:28.099Z,44.89
2023-05-19T15:19:56.132Z,44.34
2023-05-19T15:22:24.113Z,44.05
2023-05-19T15:24:52.094Z,43.20
2023-05-19T15:27:21.800Z,43.57
2023-05-19T15:29:49.863Z,44.11
2023-05-19T15:32:17.788Z,43.93
2023-05-19T15:34:45.732Z,43.59
2023-05-19T15:37:13.653Z,43.49
2023-05-19T15:39:41.555Z,43.45
2023-05-19T15:42:09.514Z,43.37
2023-05-19T15:44:38.920Z,43.10
2023-05-19T15:47:06.886Z,43.09
2023-05-19T15:49:34.843Z,42.99
2023-05-19T15:52:03.016Z,42.68
2023-05-19T15:54:30.980Z,42.44
2023-05-19T15:56:58.888Z,42.89
2023-05-19T15:59:26.779Z,42.67
2023-05-19T16:01:56.217Z,42.93
2023-05-19T16:04:24.154Z,43.58
2023-05-19T16:06:52.064Z,43.55
2023-05-19T16:09:20.297Z,42.61
2023-05-19T16:11:48.228Z,43.25
2023-05-19T16:14:16.169Z,43.55
2023-05-19T16:16:44.607Z,43.86
2023-05-19T16:19:14.083Z,44.42
2023-05-19T16:21:42.155Z,44.17
2023-05-19T16:24:10.236Z,44.12
2023-05-19T16:26:38.152Z,43.73
2023-05-19T16:29:06.210Z,43.22
2023-05-19T16:31:34.120Z,43.36
2023-05-19T16:34:02.079Z,43.28
2023-05-19T16:36:31.852Z,43.19
2023-05-19T16:38:59.867Z,43.26
2023-05-19T16:41:27.793Z,43.07
2023-05-19T16:43:55.727Z,43.26
2023-05-19T16:46:23.736Z,44.14
2023-05-19T16:48:51.865Z,44.91
2023-05-19T16:51:19.734Z,45.55
2023-05-19T16:53:48.973Z,46.43
2023-05-19T16:56:16.834Z,46.18
2023-05-19T16:58:44.748Z,46.26
2023-05-19T17:01:12.650Z,46.67
2023-05-19T17:03:40.653Z,46.91
2023-05-19T17:06:08.631Z,47.68
2023-05-19T17:08:36.634Z,48.05
2023-05-19T17:11:06.543Z,47.96
2023-05-19T17:13:36.269Z,48.27
2023-05-19T17:16:04.325Z,49.01
2023-05-19T17:18:32.337Z,50.17
2023-05-19T17:21:03.443Z,51.02
2023-05-19T17:23:31.725Z,51.43
2023-05-19T17:25:59.695Z,51.28
2023-05-19T17:28:29.103Z,52.14
2023-05-19T17:30:57.144Z,52.13
2023-05-19T17:33:25.179Z,52.61
2023-05-19T17:35:53.100Z,52.97
2023-05-19T17:38:21.090Z,53.62
2023-05-19T17:40:49.036Z,54.38
2023-05-19T17:43:16.965Z,54.54
2023-05-19T17:45:46.452Z,55.27
2023-05-19T17:48:14.520Z,56.01
2023-05-19T17:50:43.641Z,56.63
2023-05-19T17:53:11.822Z,57.50
2023-05-19T17:55:40.342Z,57.91
2023-05-19T17:58:09.045Z,58.69
2023-05-19T18:00:37.569Z,58.91
2023-05-19T18:03:08.085Z,59.27
2023-05-19T18:05:37.761Z,59.82
2023-05-19T18:08:09.402Z,60.34
2023-05-19T18:10:39.217Z,60.79
2023-05-19T18:13:08.851Z,61.59
2023-05-19T18:15:37.095Z,62.06
2023-05-19T18:18:07.451Z,62.25
2023-05-19T18:20:40.867Z,62.54
2023-05-19T18:23:08.779Z,62.81
2023-05-19T18:25:36.813Z,63.05
2023-05-19T18:28:04.999Z,63.20
2023-05-19T18:30:33.107Z,63.59
2023-05-19T18:33:03.677Z,64.24
2023-05-19T18:35:31.896Z,64.07
2023-05-19T18:38:01.150Z,64.12
2023-05-19T18:40:29.133Z,64.60
2023-05-19T18:42:57.568Z,64.86
2023-05-19T18:45:25.681Z,65.20
2023-05-19T18:47:53.588Z,65.18
2023-05-19T18:50:21.695Z,65.37
2023-05-19T18:52:49.948Z,65.64
2023-05-19T18:55:19.354Z,65.75
2023-05-19T18:57:47.287Z,65.91
2023-05-19T19:00:15.920Z,66.04
2023-05-19T19:02:43.799Z,66.29
2023-05-19T19:05:13.649Z,66.30
2023-05-19T19:07:41.838Z,66.27
2023-05-19T19:10:10.273Z,66.44
2023-05-19T19:12:39.842Z,66.28
2023-05-19T19:15:16.305Z,66.63
2023-05-19T19:17:45.291Z,66.96
2023-05-19T19:20:13.943Z,66.95
2023-05-19T19:22:41.807Z,67.25
2023-05-19T19:25:10.519Z,67.25
2023-05-19T19:27:39.909Z,67.34
2023-05-19T19:30:09.434Z,67.47
2023-05-19T19:32:37.390Z,67.40
2023-05-19T19:35:06.042Z,67.28
2023-05-19T19:37:34.057Z,67.33
2023-05-19T19:40:02.060Z,67.52
2023-05-19T19:42:31.767Z,67.50
2023-05-19T19:45:02.264Z,67.69
2023-05-19T19:47:30.555Z,67.75
2023-05-19T19:49:58.998Z,67.94
2023-05-19T19:52:27.117Z,68.06
2023-05-19T19:54:55.790Z,67.87
2023-05-19T19:57:23.899Z,68.03
2023-05-19T19:59:55.037Z,67.74
2023-05-19T20:02:24.643Z,67.81
2023-05-19T20:04:52.598Z,67.06
2023-05-19T20:07:20.898Z,67.08
2023-05-19T20:09:51.583Z,67.14
2023-05-19T20:12:19.593Z,66.81
2023-05-19T20:14:48.473Z,66.97
2023-05-19T20:17:16.382Z,66.65
2023-05-19T20:19:45.851Z,66.95
2023-05-19T20:22:13.859Z,67.67
2023-05-19T20:24:41.798Z,67.29
2023-05-19T20:27:09.822Z,67.47
2023-05-19T20:29:37.719Z,67.62
2023-05-19T20:32:05.952Z,67.45
2023-05-19T20:34:33.935Z,67.58
2023-05-19T20:37:03.246Z,67.82
2023-05-19T20:39:31.238Z,67.90
2023-05-19T20:41:59.338Z,67.78
2023-05-19T20:44:27.258Z,68.15
2023-05-19T20:46:55.351Z,67.96
2023-05-19T20:49:23.248Z,68.55
2023-05-19T20:51:51.364Z,68.99
2023-05-19T20:54:20.633Z,69.47
2023-05-19T20:56:48.897Z,69.69
2023-05-19T20:59:16.856Z,70.26
2023-05-19T21:01:45.708Z,70.62
2023-05-19T21:04:13.914Z,71.17
2023-05-19T21:06:41.842Z,71.01
2023-05-19T21:09:10.651Z,71.42
2023-05-19T21:11:40.002Z,71.55
2023-05-19T21:14:09.171Z,71.73
2023-05-19T21:16:38.776Z,71.75
2023-05-19T21:19:07.365Z,71.31
2023-05-19T21:21:36.270Z,71.22
2023-05-19T21:24:04.387Z,71.05
2023-05-19T21:26:32.311Z,70.70
2023-05-19T21:29:01.590Z,70.47
2023-05-19T21:31:29.578Z,70.49
2023-05-19T21:33:58.112Z,70.07
2023-05-19T21:36:26.024Z,70.11
2023-05-19T21:38:53.972Z,69.58
2023-05-19T21:41:22.314Z,69.35
2023-05-19T21:43:50.223Z,68.89
2023-05-19T21:46:20.078Z,69.04
2023-05-19T21:48:48.112Z,70.06
2023-05-19T21:51:16.194Z,69.96
2023-05-19T21:53:44.146Z,70.47
2023-05-19T21:56:12.068Z,70.80
2023-05-19T21:58:40.549Z,71.17
2023-05-19T22:01:08.922Z,71.35
2023-05-19T22:03:38.428Z,71.84
2023-05-19T22:06:07.572Z,71.98
2023-05-19T22:08:35.536Z,72.79
2023-05-19T22:11:03.520Z,72.83
2023-05-19T22:13:32.078Z,73.14
2023-05-19T22:16:00.094Z,72.98
2023-05-19T22:18:28.048Z,73.53
2023-05-19T22:20:57.285Z,74.05
2023-05-19T22:23:25.350Z,73.71
2023-05-19T22:25:53.242Z,73.54
2023-05-19T22:28:21.135Z,74.30
2023-05-19T22:30:48.974Z,73.49
2023-05-19T22:33:17.032Z,74.09
2023-05-19T22:35:44.920Z,74.08
2023-05-19T22:38:14.210Z,73.93
2023-05-19T22:40:42.138Z,73.94
2023-05-19T22:43:10.078Z,74.02
2023-05-19T22:45:38.141Z,74.27
2023-05-19T22:48:07.066Z,74.38
2023-05-19T22:50:35.036Z,74.96
2023-05-19T22:53:02.990Z,74.79
2023-05-19T22:55:33.481Z,74.35
2023-05-19T22:58:01.673Z,74.58
2023-05-19T23:00:29.843Z,74.90
2023-05-19T23:02:58.303Z,75.05
2023-05-19T23:05:26.475Z,74.90
2023-05-19T23:07:54.459Z,74.73
2023-05-19T23:10:22.356Z,75.00
2023-05-19T23:12:51.706Z,74.93
2023-05-19T23:15:19.603Z,74.21
2023-05-19T23:17:47.649Z,73.57
2023-05-19T23:20:15.790Z,73.38
2023-05-19T23:22:43.739Z,72.68
2023-05-19T23:25:11.656Z,72.61
2023-05-19T23:27:39.573Z,72.79
2023-05-19T23:30:10.114Z,72.86
2023-05-19T23:32:38.074Z,72.92
2023-05-19T23:35:13.487Z,73.02
2023-05-19T23:37:41.919Z,73.74
2023-05-19T23:40:11.430Z,73.87
2023-05-19T23:42:39.473Z,73.97
2023-05-19T23:45:10.007Z,73.94
2023-05-19T23:47:38.158Z,74.16
2023-05-19T23:50:06.547Z,74.03
2023-05-19T23:52:34.619Z,74.62
2023-05-19T23:55:03.614Z,74.19
2023-05-19T23:57:31.579Z,74.02
